createdAt,value
2023-04-07T00:00:30.835Z,98033.31
2023-04-07T00:02:57.739Z,98045.56
2023-04-07T00:05:24.293Z,98033.44
2023-04-07T00:07:56.491Z,98024.22
2023-04-07T00:10:25.351Z,98030.63
2023-04-07T00:12:52.319Z,98033.78
2023-04-07T00:15:18.916Z,98028.59
2023-04-07T00:17:45.385Z,98030.25
2023-04-07T00:20:15.068Z,98022.13
2023-04-07T00:22:45.533Z,98032.84
2023-04-07T00:25:13.068Z,98042.00
2023-04-07T00:27:39.506Z,98041.00
2023-04-07T00:30:08.132Z,98035.22
2023-04-07T00:32:35.372Z,98032.75
2023-04-07T00:35:02.970Z,98026.84
2023-04-07T00:37:29.527Z,98032.50
2023-04-07T00:39:57.860Z,98021.94
2023-04-07T00:42:24.295Z,98026.13
2023-04-07T00:44:51.069Z,98016.19
2023-04-07T00:47:17.645Z,98019.69
2023-04-07T00:49:44.468Z,98011.41
2023-04-07T00:52:15.065Z,98011.25
2023-04-07T00:54:47.123Z,98011.41
2023-04-07T00:57:15.032Z,97993.22
2023-04-07T00:59:41.597Z,98012.19
2023-04-07T01:02:17.048Z,98001.38
2023-04-07T01:05:09.472Z,98012.47
2023-04-07T01:08:02.255Z,98007.19
2023-04-07T01:10:37.419Z,98008.63
2023-04-07T01:13:24.060Z,98005.19
2023-04-07T01:15:57.027Z,97999.41
2023-04-07T01:18:35.457Z,97997.09
2023-04-07T01:21:11.239Z,98009.34
2023-04-07T01:24:01.591Z,97995.94
2023-04-07T01:26:30.237Z,97996.50
2023-04-07T01:29:15.568Z,98003.94
2023-04-07T01:31:42.410Z,97993.69
2023-04-07T01:34:13.344Z,97982.44
2023-04-07T01:36:40.462Z,97985.91
2023-04-07T01:39:07.764Z,97988.41
2023-04-07T01:41:34.949Z,97992.88
2023-04-07T01:44:03.472Z,97997.19
2023-04-07T01:46:30.186Z,97999.00
2023-04-07T01:48:57.993Z,97994.19
2023-04-07T01:51:27.415Z,97996.19
2023-04-07T01:53:54.693Z,97987.53
2023-04-07T01:56:21.327Z,97997.47
2023-04-07T01:58:47.807Z,97987.22
2023-04-07T02:01:14.999Z,97992.34
2023-04-07T02:04:11.204Z,97982.28
2023-04-07T02:06:52.646Z,97980.47
2023-04-07T02:09:21.528Z,97979.16
2023-04-07T02:11:56.115Z,97983.78
2023-04-07T02:14:24.470Z,97976.34
2023-04-07T02:16:52.869Z,97987.78
2023-04-07T02:19:19.978Z,97990.91
2023-04-07T02:21:48.895Z,97984.28
2023-04-07T02:24:21.034Z,97984.78
2023-04-07T02:26:48.133Z,97990.25
2023-04-07T02:29:15.572Z,97989.91
2023-04-07T02:31:42.145Z,97980.66
2023-04-07T02:34:08.664Z,97987.09
2023-04-07T02:36:35.503Z,97985.44
2023-04-07T02:39:02.567Z,97986.59
2023-04-07T02:41:29.075Z,97976.38
2023-04-07T02:43:56.146Z,97987.94
2023-04-07T02:46:22.969Z,97982.63
2023-04-07T02:48:52.716Z,97976.81
2023-04-07T02:51:20.241Z,97987.38
2023-04-07T02:53:46.764Z,97988.72
2023-04-07T02:56:13.299Z,97994.66
2023-04-07T02:58:42.714Z,97995.84
2023-04-07T03:01:09.255Z,97993.22
2023-04-07T03:03:35.888Z,97981.78
2023-04-07T03:06:02.384Z,97977.34
2023-04-07T03:08:28.849Z,97985.91
2023-04-07T03:10:55.400Z,97987.06
2023-04-07T03:13:22.994Z,97994.34
2023-04-07T03:15:50.816Z,97984.56
2023-04-07T03:18:17.554Z,97974.50
2023-04-07T03:20:44.626Z,97978.97
2023-04-07T03:23:11.491Z,97973.31
2023-04-07T03:25:38.004Z,97983.25
2023-04-07T03:28:04.735Z,97986.84
2023-04-07T03:30:31.355Z,97976.72
2023-04-07T03:32:57.868Z,97974.88
2023-04-07T03:35:24.484Z,97977.75
2023-04-07T03:37:52.262Z,97974.06
2023-04-07T03:40:18.962Z,97979.50
2023-04-07T03:42:46.538Z,97978.84
2023-04-07T03:45:13.142Z,97973.91
2023-04-07T03:47:39.598Z,97965.31
2023-04-07T03:50:06.828Z,97972.56
2023-04-07T03:52:33.317Z,97966.16
2023-04-07T03:54:59.810Z,97959.66
2023-04-07T03:57:26.281Z,97969.91
2023-04-07T03:59:54.733Z,97965.97
2023-04-07T04:02:21.369Z,97958.03
2023-04-07T04:04:47.931Z,97970.09
2023-04-07T04:07:14.428Z,97968.47
2023-04-07T04:09:41.305Z,97961.53
2023-04-07T04:12:07.963Z,97966.03
2023-04-07T04:14:34.410Z,97975.78
2023-04-07T04:17:00.995Z,97968.34
2023-04-07T04:19:32.004Z,97964.88
2023-04-07T04:21:58.632Z,97979.78
2023-04-07T04:24:25.693Z,97986.53
2023-04-07T04:26:52.140Z,97995.47
2023-04-07T04:29:18.593Z,97994.28
2023-04-07T04:31:45.372Z,97988.50
2023-04-07T04:34:11.987Z,97989.06
2023-04-07T04:36:41.103Z,97977.84
2023-04-07T04:39:07.636Z,97972.56
2023-04-07T04:41:34.064Z,97971.91
2023-04-07T04:44:00.802Z,97974.72
2023-04-07T04:46:27.446Z,97984.16
2023-04-07T04:48:54.215Z,97976.56
2023-04-07T04:51:20.792Z,97972.13
2023-04-07T04:53:47.748Z,97970.28
2023-04-07T04:56:14.276Z,97966.66
2023-04-07T04:58:42.189Z,97979.69
2023-04-07T05:01:08.801Z,97976.72
2023-04-07T05:03:35.427Z,97976.41
2023-04-07T05:06:01.988Z,97959.34
2023-04-07T05:08:28.632Z,97974.19
2023-04-07T05:10:57.938Z,97982.63
2023-04-07T05:13:25.821Z,97969.09
2023-04-07T05:15:52.361Z,97972.84
2023-04-07T05:18:18.884Z,97973.91
2023-04-07T05:20:45.381Z,97972.03
2023-04-07T05:23:11.832Z,97977.00
2023-04-07T05:25:38.245Z,97985.19
2023-04-07T05:28:04.817Z,97986.88
2023-04-07T05:30:31.283Z,97985.50
2023-04-07T05:33:01.109Z,97986.00
2023-04-07T05:35:28.781Z,97986.69
2023-04-07T05:37:55.443Z,97991.66
2023-04-07T05:40:21.895Z,98016.69
2023-04-07T05:42:48.425Z,98019.34
2023-04-07T05:45:15.000Z,98007.81
2023-04-07T05:47:41.818Z,98026.94
2023-04-07T05:50:08.807Z,98019.06
2023-04-07T05:52:35.242Z,98029.69
2023-04-07T05:55:01.776Z,98030.34
2023-04-07T05:57:29.709Z,98037.19
2023-04-07T05:59:56.246Z,98026.78
2023-04-07T06:02:22.847Z,98026.63
2023-04-07T06:04:49.650Z,98034.41
2023-04-07T06:07:16.181Z,98041.63
2023-04-07T06:09:42.818Z,98043.78
2023-04-07T06:12:10.744Z,98044.31
2023-04-07T06:14:37.253Z,98044.13
2023-04-07T06:17:06.982Z,98048.63
2023-04-07T06:19:33.762Z,98036.00
2023-04-07T06:22:00.590Z,98053.06
2023-04-07T06:24:29.973Z,98045.28
2023-04-07T06:26:59.363Z,98047.00
2023-04-07T06:29:29.860Z,98043.06
2023-04-07T06:32:00.497Z,98056.31
2023-04-07T06:34:28.457Z,98043.88
2023-04-07T06:36:56.406Z,98050.16
2023-04-07T06:39:28.920Z,98061.00
2023-04-07T06:41:58.120Z,98063.84
2023-04-07T06:44:24.593Z,98054.50
2023-04-07T06:46:55.507Z,98057.44
2023-04-07T06:49:22.209Z,98065.59
2023-04-07T06:51:50.266Z,98075.44
2023-04-07T06:54:17.232Z,98082.53
2023-04-07T06:56:44.678Z,98091.34
2023-04-07T06:59:11.564Z,98099.56
2023-04-07T07:01:38.621Z,98089.19
2023-04-07T07:04:08.414Z,98096.78
2023-04-07T07:06:35.561Z,98066.63
2023-04-07T07:09:03.425Z,98081.44
2023-04-07T07:11:32.815Z,98082.47
2023-04-07T07:14:01.710Z,98079.59
2023-04-07T07:16:29.897Z,98088.75
2023-04-07T07:18:56.903Z,98082.91
2023-04-07T07:21:23.405Z,98085.75
2023-04-07T07:23:50.195Z,98075.66
2023-04-07T07:26:16.888Z,98092.16
2023-04-07T07:28:43.511Z,98072.72
2023-04-07T07:31:14.907Z,98077.50
2023-04-07T07:33:43.854Z,98072.03
2023-04-07T07:36:10.782Z,98061.97
2023-04-07T07:38:37.902Z,98076.81
2023-04-07T07:41:04.597Z,98071.72
2023-04-07T07:43:31.191Z,98052.88
2023-04-07T07:46:01.267Z,98046.22
2023-04-07T07:48:30.728Z,98070.81
2023-04-07T07:50:57.198Z,98064.50
2023-04-07T07:53:23.804Z,98071.41
2023-04-07T07:55:50.482Z,98072.69
2023-04-07T07:58:16.994Z,98063.84
2023-04-07T08:00:43.606Z,98076.31
2023-04-07T08:03:10.441Z,98070.13
2023-04-07T08:05:36.913Z,98075.56
2023-04-07T08:08:03.741Z,98069.75
2023-04-07T08:10:33.226Z,98046.25
2023-04-07T08:12:59.876Z,98084.28
2023-04-07T08:15:26.618Z,98087.25
2023-04-07T08:17:54.824Z,98094.06
2023-04-07T08:20:23.188Z,98077.34
2023-04-07T08:22:49.689Z,98071.91
2023-04-07T08:25:16.447Z,98101.97
2023-04-07T08:27:43.093Z,98090.34
2023-04-07T08:30:09.967Z,98108.78
2023-04-07T08:32:42.206Z,98105.25
2023-04-07T08:35:09.126Z,98101.06
2023-04-07T08:37:36.701Z,98104.63
2023-04-07T08:40:04.106Z,98079.16
2023-04-07T08:42:33.084Z,98116.41
2023-04-07T08:45:05.821Z,98116.41
2023-04-07T08:47:34.745Z,98106.00
2023-04-07T08:50:06.825Z,98093.88
2023-04-07T08:52:54.704Z,98069.63
2023-04-07T08:55:21.421Z,98089.41
2023-04-07T08:57:48.392Z,98079.06
2023-04-07T09:00:15.550Z,98089.97
2023-04-07T09:02:50.169Z,98078.13
2023-04-07T09:05:16.869Z,98093.41
2023-04-07T09:07:43.888Z,98053.84
2023-04-07T09:10:10.736Z,98090.13
2023-04-07T09:12:37.529Z,98094.16
2023-04-07T09:15:06.393Z,98072.59
2023-04-07T09:17:32.980Z,98080.94
2023-04-07T09:20:04.954Z,98082.38
2023-04-07T09:22:47.990Z,98058.09
2023-04-07T09:25:24.030Z,98088.06
2023-04-07T09:28:01.468Z,98097.72
2023-04-07T09:30:32.579Z,98101.50
2023-04-07T09:33:02.763Z,98106.31
2023-04-07T09:35:32.319Z,98105.34
2023-04-07T09:38:06.682Z,98080.72
2023-04-07T09:40:33.745Z,98097.16
2023-04-07T09:43:06.088Z,98095.19
2023-04-07T09:45:36.142Z,98090.34
2023-04-07T09:48:07.882Z,98099.78
2023-04-07T09:50:37.069Z,98103.09
2023-04-07T09:53:04.845Z,98106.56
2023-04-07T09:55:31.667Z,98093.75
2023-04-07T09:58:00.914Z,98099.94
2023-04-07T10:00:27.395Z,98082.06
2023-04-07T10:02:54.412Z,98079.78
2023-04-07T10:05:22.103Z,98069.91
2023-04-07T10:07:49.139Z,98060.28
2023-04-07T10:10:15.954Z,98082.09
2023-04-07T10:12:42.734Z,98083.56
2023-04-07T10:15:13.825Z,98055.13
2023-04-07T10:17:45.573Z,98069.97
2023-04-07T10:20:13.809Z,98055.16
2023-04-07T10:22:42.659Z,98044.72
2023-04-07T10:25:11.708Z,98050.03
2023-04-07T10:27:53.274Z,98084.16
2023-04-07T10:30:36.331Z,98083.63
2023-04-07T10:33:02.900Z,98083.75
2023-04-07T10:36:07.336Z,98080.25
2023-04-07T10:38:34.200Z,98069.56
2023-04-07T10:41:00.828Z,98070.78
2023-04-07T10:43:41.947Z,98070.28
2023-04-07T10:46:08.738Z,98074.41
2023-04-07T10:48:35.317Z,98061.44
2023-04-07T10:51:04.864Z,98065.66
2023-04-07T10:53:32.134Z,98022.22
2023-04-07T10:56:05.794Z,98040.84
2023-04-07T10:58:33.278Z,98043.63
2023-04-07T11:01:09.371Z,98040.00
2023-04-07T11:03:38.162Z,98041.38
2023-04-07T11:06:14.739Z,98051.97
2023-04-07T11:08:48.767Z,98051.63
2023-04-07T11:11:36.428Z,98043.88
2023-04-07T11:14:03.822Z,98043.78
2023-04-07T11:16:43.846Z,98053.47
2023-04-07T11:19:11.562Z,98030.84
2023-04-07T11:21:38.513Z,98058.72
2023-04-07T11:24:05.697Z,98039.13
2023-04-07T11:26:39.072Z,98026.81
2023-04-07T11:29:05.692Z,98025.13
2023-04-07T11:31:32.612Z,98016.28
2023-04-07T11:34:07.600Z,98014.09
2023-04-07T11:36:41.860Z,98033.47
2023-04-07T11:39:21.628Z,98026.25
2023-04-07T11:41:50.188Z,98044.94
2023-04-07T11:44:17.233Z,98055.38
2023-04-07T11:46:56.734Z,98062.97
2023-04-07T11:49:25.233Z,98060.31
2023-04-07T11:52:02.123Z,98048.31
2023-04-07T11:54:50.044Z,98034.91
2023-04-07T11:57:26.144Z,98042.75
2023-04-07T12:00:06.688Z,98025.91
2023-04-07T12:02:34.684Z,98025.63
2023-04-07T12:05:02.115Z,98038.09
2023-04-07T12:07:29.980Z,98024.22
2023-04-07T12:09:57.736Z,98013.31
2023-04-07T12:12:35.171Z,97997.22
2023-04-07T12:15:05.300Z,98008.38
2023-04-07T12:17:32.163Z,98001.47
2023-04-07T12:19:58.669Z,98009.09
2023-04-07T12:22:26.991Z,98008.53
2023-04-07T12:24:53.483Z,97995.66
2023-04-07T12:27:22.821Z,98007.66
2023-04-07T12:29:53.304Z,98007.72
2023-04-07T12:32:19.841Z,98008.19
2023-04-07T12:34:47.848Z,97987.50
2023-04-07T12:37:14.472Z,97990.09
2023-04-07T12:39:41.142Z,97995.75
2023-04-07T12:42:11.691Z,98011.31
2023-04-07T12:44:38.558Z,97971.44
2023-04-07T12:47:04.986Z,97988.56
2023-04-07T12:49:34.852Z,97986.72
2023-04-07T12:52:04.686Z,97975.06
2023-04-07T12:54:32.575Z,97967.03
2023-04-07T12:56:59.793Z,97966.69
2023-04-07T12:59:26.334Z,97970.81
2023-04-07T13:01:53.553Z,97976.41
2023-04-07T13:04:20.212Z,97960.97
2023-04-07T13:06:46.811Z,97959.44
2023-04-07T13:09:13.306Z,97973.38
2023-04-07T13:11:40.115Z,97956.66
2023-04-07T13:14:07.642Z,97968.22
2023-04-07T13:16:34.242Z,97934.31
2023-04-07T13:19:03.150Z,97956.81
2023-04-07T13:21:45.627Z,97954.72
2023-04-07T13:24:13.723Z,97940.56
2023-04-07T13:26:40.286Z,97931.38
2023-04-07T13:29:06.841Z,97940.41
2023-04-07T13:31:36.266Z,97944.66
2023-04-07T13:34:03.525Z,97946.81
2023-04-07T13:36:30.180Z,97938.75
2023-04-07T13:38:57.674Z,97955.19
2023-04-07T13:41:24.243Z,97942.81
2023-04-07T13:43:51.098Z,97949.38
2023-04-07T13:46:28.045Z,97938.94
2023-04-07T13:48:56.337Z,97951.69
2023-04-07T13:51:22.936Z,97946.06
2023-04-07T13:53:49.799Z,97949.28
2023-04-07T13:56:16.596Z,97933.78
2023-04-07T13:58:43.162Z,97933.38
2023-04-07T14:01:09.670Z,97925.38
2023-04-07T14:03:36.277Z,97958.94
2023-04-07T14:06:03.449Z,97952.91
2023-04-07T14:08:29.931Z,97972.72
2023-04-07T14:10:56.500Z,97972.94
2023-04-07T14:13:23.170Z,97959.19
2023-04-07T14:15:50.386Z,97949.44
2023-04-07T14:18:17.514Z,97955.84
2023-04-07T14:20:44.216Z,97954.66
2023-04-07T14:23:11.420Z,97943.09
2023-04-07T14:25:37.898Z,97929.94
2023-04-07T14:28:04.443Z,97924.53
2023-04-07T14:30:34.614Z,97920.59
2023-04-07T14:33:05.053Z,97946.31
2023-04-07T14:35:35.983Z,97955.72
2023-04-07T14:38:07.826Z,97940.44
2023-04-07T14:40:34.391Z,97939.19
2023-04-07T14:43:07.385Z,97925.38
2023-04-07T14:45:35.714Z,97942.75
2023-04-07T14:48:06.947Z,97918.75
2023-04-07T14:50:34.171Z,97942.81
2023-04-07T14:53:04.779Z,97925.38
2023-04-07T14:55:32.863Z,97914.53
2023-04-07T14:57:59.728Z,97933.03
2023-04-07T15:00:27.272Z,97936.91
2023-04-07T15:02:54.426Z,97929.31
2023-04-07T15:05:23.010Z,97949.97
2023-04-07T15:07:52.544Z,97942.44
2023-04-07T15:10:19.171Z,97952.06
2023-04-07T15:12:47.392Z,97951.59
2023-04-07T15:15:14.373Z,97944.00
2023-04-07T15:17:44.252Z,97945.97
2023-04-07T15:20:12.967Z,97944.88
2023-04-07T15:22:39.960Z,97934.13
2023-04-07T15:25:06.836Z,97925.31
2023-04-07T15:27:36.932Z,97939.88
2023-04-07T15:30:04.145Z,97928.53
2023-04-07T15:32:33.415Z,97928.91
2023-04-07T15:34:59.912Z,97934.75
2023-04-07T15:37:26.595Z,97931.59
2023-04-07T15:39:53.312Z,97924.16
2023-04-07T15:42:19.829Z,97929.50
2023-04-07T15:44:46.354Z,97929.94
2023-04-07T15:47:12.878Z,97921.88
2023-04-07T15:49:39.390Z,97927.53
2023-04-07T15:52:06.152Z,97926.53
2023-04-07T15:54:36.146Z,97930.50
2023-04-07T15:57:05.373Z,97916.22
2023-04-07T15:59:36.242Z,97926.34
2023-04-07T16:02:06.420Z,97924.38
2023-04-07T16:04:35.983Z,97924.84
2023-04-07T16:07:05.383Z,97930.38
2023-04-07T16:09:33.931Z,97922.31
2023-04-07T16:12:03.537Z,97922.97
2023-04-07T16:14:33.302Z,97939.63
2023-04-07T16:16:59.824Z,97935.59
2023-04-07T16:19:26.419Z,97940.22
2023-04-07T16:21:53.628Z,97950.47
2023-04-07T16:24:20.752Z,97938.31
2023-04-07T16:26:50.599Z,97946.47
2023-04-07T16:29:19.081Z,97943.00
2023-04-07T16:31:46.008Z,97953.34
2023-04-07T16:34:13.362Z,97940.56
2023-04-07T16:36:40.778Z,97958.56
2023-04-07T16:39:07.426Z,97953.53
2023-04-07T16:41:33.948Z,97953.88
2023-04-07T16:44:00.630Z,97941.19
2023-04-07T16:46:28.888Z,97960.16
2023-04-07T16:48:55.619Z,97955.63
2023-04-07T16:51:22.213Z,97962.91
2023-04-07T16:53:48.908Z,97968.13
2023-04-07T16:56:23.135Z,97971.94
2023-04-07T16:58:51.086Z,97957.41
2023-04-07T17:01:18.388Z,97965.22
2023-04-07T17:03:48.392Z,97985.16
2023-04-07T17:06:16.505Z,97972.97
2023-04-07T17:08:43.958Z,97963.69
2023-04-07T17:11:11.287Z,97980.94
2023-04-07T17:13:40.013Z,97959.56
2023-04-07T17:16:06.982Z,97980.38
2023-04-07T17:18:37.565Z,97973.38
2023-04-07T17:21:07.764Z,97982.66
2023-04-07T17:23:38.391Z,97967.88
2023-04-07T17:26:08.356Z,97961.31
2023-04-07T17:28:37.648Z,97982.50
2023-04-07T17:31:06.205Z,97969.53
2023-04-07T17:33:33.433Z,97979.00
2023-04-07T17:36:03.208Z,97972.03
2023-04-07T17:38:30.700Z,97967.47
2023-04-07T17:41:02.049Z,97976.50
2023-04-07T17:43:28.846Z,97983.47
2023-04-07T17:45:55.517Z,98006.34
2023-04-07T17:48:41.128Z,98004.78
2023-04-07T17:51:55.336Z,98008.09
2023-04-07T17:54:21.979Z,98005.56
2023-04-07T17:56:48.418Z,97982.56
2023-04-07T17:59:15.096Z,98013.84
2023-04-07T18:01:41.824Z,97984.06
2023-04-07T18:04:08.774Z,97994.75
2023-04-07T18:06:37.622Z,98008.34
2023-04-07T18:09:04.817Z,98010.41
2023-04-07T18:11:32.886Z,98026.00
2023-04-07T18:14:21.136Z,98020.94
2023-04-07T18:17:16.239Z,98028.81
2023-04-07T18:19:43.085Z,98037.03
2023-04-07T18:22:13.029Z,98033.09
2023-04-07T18:25:00.222Z,98053.88
2023-04-07T18:30:10.660Z,98038.03
2023-04-07T18:33:19.141Z,98068.44
2023-04-07T18:35:45.714Z,98049.53
2023-04-07T18:38:16.369Z,98086.59
2023-04-07T18:40:43.884Z,98058.47
2023-04-07T18:43:10.442Z,98082.06
2023-04-07T18:45:39.969Z,98078.47
2023-04-07T18:48:09.442Z,98097.34
2023-04-07T18:50:39.182Z,98083.13
2023-04-07T18:53:11.626Z,98098.69
2023-04-07T18:55:41.164Z,98101.69
2023-04-07T18:58:11.127Z,98081.13
2023-04-07T19:00:38.878Z,98100.81
2023-04-07T19:03:05.713Z,98110.47
2023-04-07T19:05:32.917Z,98113.44
2023-04-07T19:07:59.690Z,98108.28
2023-04-07T19:10:26.133Z,98121.41
2023-04-07T19:12:52.649Z,98104.16
2023-04-07T19:15:19.166Z,98121.38
2023-04-07T19:17:45.720Z,98135.47
2023-04-07T19:20:12.248Z,98143.91
2023-04-07T19:22:38.702Z,98115.19
2023-04-07T19:25:09.449Z,98122.47
2023-04-07T19:27:36.253Z,98129.97
2023-04-07T19:30:02.883Z,98144.72
2023-04-07T19:32:29.436Z,98155.00
2023-04-07T19:34:56.309Z,98130.78
2023-04-07T19:37:25.218Z,98163.91
2023-04-07T19:40:01.743Z,98159.25
2023-04-07T19:42:29.439Z,98140.16
2023-04-07T19:44:58.473Z,98170.63
2023-04-07T19:47:25.167Z,98171.25
2023-04-07T19:49:54.741Z,98159.19
2023-04-07T19:52:21.320Z,98147.56
2023-04-07T19:54:47.916Z,98164.78
2023-04-07T19:57:16.360Z,98184.25
2023-04-07T19:59:43.137Z,98189.16
2023-04-07T20:02:09.635Z,98191.56
2023-04-07T20:04:36.619Z,98179.75
2023-04-07T20:07:03.097Z,98193.16
2023-04-07T20:09:29.706Z,98196.63
2023-04-07T20:11:57.443Z,98195.28
2023-04-07T20:14:24.049Z,98204.81
2023-04-07T20:16:50.551Z,98203.44
2023-04-07T20:19:17.129Z,98214.09
2023-04-07T20:21:43.768Z,98216.34
2023-04-07T20:24:10.245Z,98204.53
2023-04-07T20:26:40.699Z,98203.78
2023-04-07T20:29:09.212Z,98202.50
2023-04-07T20:31:35.848Z,98214.50
2023-04-07T20:34:03.338Z,98201.38
2023-04-07T20:36:29.821Z,98215.78
2023-04-07T20:38:56.588Z,98207.50
2023-04-07T20:41:23.695Z,98213.75
2023-04-07T20:43:54.871Z,98206.19
2023-04-07T20:46:21.678Z,98215.97
2023-04-07T20:48:48.354Z,98210.47
2023-04-07T20:51:14.999Z,98226.88
2023-04-07T20:53:41.572Z,98214.75
2023-04-07T20:56:08.694Z,98220.59
2023-04-07T20:58:36.119Z,98219.91
2023-04-07T21:01:02.619Z,98208.69
2023-04-07T21:03:30.891Z,98219.31
2023-04-07T21:05:57.662Z,98215.28
2023-04-07T21:08:24.653Z,98208.63
2023-04-07T21:10:52.410Z,98215.84
2023-04-07T21:13:19.869Z,98219.97
2023-04-07T21:15:46.483Z,98220.59
2023-04-07T21:18:12.956Z,98211.59
2023-04-07T21:20:46.040Z,98219.78
2023-04-07T21:23:12.484Z,98220.47
2023-04-07T21:25:43.465Z,98213.81
2023-04-07T21:28:11.097Z,98222.09
2023-04-07T21:30:44.008Z,98208.84
2023-04-07T21:33:14.473Z,98226.31
2023-04-07T21:35:45.404Z,98223.09
2023-04-07T21:38:16.427Z,98210.63
2023-04-07T21:40:43.237Z,98217.59
2023-04-07T21:43:12.202Z,98223.94
2023-04-07T21:45:39.465Z,98210.38
2023-04-07T21:48:06.697Z,98224.78
2023-04-07T21:50:33.676Z,98218.28
2023-04-07T21:53:00.353Z,98229.75
2023-04-07T21:55:27.286Z,98227.97
2023-04-07T21:57:54.014Z,98235.88
2023-04-07T22:00:20.510Z,98231.97
2023-04-07T22:02:47.111Z,98233.09
2023-04-07T22:05:14.942Z,98226.28
2023-04-07T22:07:41.664Z,98225.44
2023-04-07T22:10:08.770Z,98234.19
2023-04-07T22:12:35.462Z,98229.03
2023-04-07T22:15:01.923Z,98233.06
2023-04-07T22:17:28.478Z,98237.59
2023-04-07T22:19:54.983Z,98238.66
2023-04-07T22:22:21.447Z,98224.09
2023-04-07T22:24:47.941Z,98240.13
2023-04-07T22:27:14.422Z,98231.41
2023-04-07T22:29:41.071Z,98233.84
2023-04-07T22:32:07.569Z,98220.44
2023-04-07T22:34:34.080Z,98234.41
2023-04-07T22:37:00.545Z,98239.31
2023-04-07T22:39:27.215Z,98229.94
2023-04-07T22:41:53.695Z,98227.50
2023-04-07T22:44:20.312Z,98236.16
2023-04-07T22:46:46.932Z,98239.44
2023-04-07T22:49:15.769Z,98225.81
2023-04-07T22:51:48.337Z,98239.34
2023-04-07T22:54:18.437Z,98236.50
2023-04-07T22:56:48.175Z,98241.50
2023-04-07T22:59:14.652Z,98235.25
2023-04-07T23:01:41.268Z,98243.72
2023-04-07T23:04:07.791Z,98238.91
2023-04-07T23:06:34.267Z,98248.06
2023-04-07T23:09:01.115Z,98240.81
2023-04-07T23:11:27.600Z,98245.44
2023-04-07T23:13:54.021Z,98239.44
2023-04-07T23:16:20.917Z,98237.06
2023-04-07T23:18:50.453Z,98237.47
2023-04-07T23:21:20.026Z,98243.72
2023-04-07T23:23:50.031Z,98249.81
2023-04-07T23:26:17.995Z,98247.31
2023-04-07T23:28:44.461Z,98245.63
2023-04-07T23:31:11.058Z,98244.22
2023-04-07T23:33:37.729Z,98250.19
2023-04-07T23:36:04.929Z,98247.53
2023-04-07T23:38:31.524Z,98248.00
2023-04-07T23:40:57.932Z,98239.78
2023-04-07T23:43:24.524Z,98243.16
2023-04-07T23:45:51.281Z,98249.97
2023-04-07T23:48:21.085Z,98252.31
2023-04-07T23:50:49.158Z,98257.72
2023-04-07T23:53:15.564Z,98249.72
2023-04-07T23:55:42.077Z,98258.84
2023-04-07T23:58:08.615Z,98260.78
